createdAt,value
2018-09-23T00:02:43.959Z,100316.21
2018-09-23T00:07:47.399Z,100306.02
2018-09-23T00:12:50.873Z,100311.67
2018-09-23T00:17:54.300Z,100303.92
2018-09-23T00:22:57.735Z,100292.16
2018-09-23T00:28:01.172Z,100278.23
2018-09-23T00:33:04.628Z,100282.70
2018-09-23T00:38:08.122Z,100284.52
2018-09-23T00:43:11.568Z,100290.70
2018-09-23T00:48:15.159Z,100285.30
2018-09-23T00:53:18.574Z,100276.56
2018-09-23T00:58:22.110Z,100280.04
2018-09-23T01:03:25.540Z,100286.18
2018-09-23T01:08:28.974Z,100271.53
2018-09-23T01:13:32.434Z,100273.98
2018-09-23T01:18:35.885Z,100271.91
2018-09-23T01:23:39.351Z,100266.73
2018-09-23T01:28:42.783Z,100265.16
2018-09-23T01:33:46.216Z,100252.72
2018-09-23T01:38:49.683Z,100248.44
2018-09-23T01:43:53.135Z,100230.59
2018-09-23T01:48:56.579Z,100223.11
2018-09-23T01:54:00.030Z,100221.00
2018-09-23T01:59:03.476Z,100225.20
2018-09-23T02:04:06.943Z,100215.02
2018-09-23T02:09:10.771Z,100239.34
2018-09-23T02:14:14.307Z,100230.12
2018-09-23T02:19:17.756Z,100229.75
2018-09-23T02:24:21.207Z,100222.27
2018-09-23T02:29:24.651Z,100207.64
2018-09-23T02:34:28.124Z,100214.89
2018-09-23T02:39:31.606Z,100205.56
2018-09-23T02:44:35.039Z,100192.54
2018-09-23T02:49:38.483Z,100188.48
2018-09-23T02:54:42.086Z,100189.08
2018-09-23T02:59:45.528Z,100187.37
2018-09-23T03:04:48.968Z,100179.39
2018-09-23T03:09:52.473Z,100169.56
2018-09-23T03:14:55.935Z,100170.56
2018-09-23T03:19:59.419Z,100175.97
2018-09-23T03:25:02.920Z,100174.22
2018-09-23T03:30:07.266Z,100166.24
2018-09-23T03:35:10.869Z,100142.91
2018-09-23T03:40:14.335Z,100137.14
2018-09-23T03:45:17.780Z,100140.34
2018-09-23T03:50:21.246Z,100154.34
2018-09-23T03:55:24.692Z,100150.30
2018-09-23T04:00:28.140Z,100130.12
2018-09-23T04:05:31.618Z,100126.70
2018-09-23T04:10:35.081Z,100116.74
2018-09-23T04:15:38.521Z,100109.13
2018-09-23T04:20:41.967Z,100107.91
2018-09-23T04:25:45.436Z,100098.95
2018-09-23T04:30:48.895Z,100102.61
2018-09-23T04:35:52.350Z,100103.60
2018-09-23T04:40:55.770Z,100108.52
2018-09-23T04:45:59.202Z,100089.23
2018-09-23T04:51:02.636Z,100088.37
2018-09-23T04:56:06.065Z,100086.66
2018-09-23T05:01:09.603Z,100083.97
2018-09-23T05:06:13.036Z,100086.30
2018-09-23T05:11:16.476Z,100090.86
2018-09-23T05:16:20.454Z,100089.01
2018-09-23T05:21:23.952Z,100089.97
2018-09-23T05:26:27.484Z,100084.47
2018-09-23T05:31:30.999Z,100075.38
2018-09-23T05:36:34.431Z,100074.02
2018-09-23T05:41:37.937Z,100063.34
2018-09-23T05:46:41.373Z,100055.24
2018-09-23T05:51:44.829Z,100037.68
2018-09-23T05:56:48.260Z,100029.44
2018-09-23T06:01:51.702Z,100016.06
2018-09-23T06:06:55.155Z,100009.30
2018-09-23T06:12:01.098Z,100020.11
2018-09-23T06:17:04.540Z,100033.23
2018-09-23T06:22:07.991Z,100012.11
2018-09-23T06:27:11.429Z,100005.85
2018-09-23T06:32:14.901Z,100009.05
2018-09-23T06:37:18.314Z,100003.64
2018-09-23T06:42:21.756Z,100004.86
2018-09-23T06:47:25.331Z,100017.16
2018-09-23T06:52:28.769Z,100016.66
2018-09-23T06:57:33.277Z,100012.75
2018-09-23T07:02:37.683Z,100003.28
2018-09-23T07:07:41.191Z,100023.11
2018-09-23T07:12:45.012Z,100024.44
2018-09-23T07:17:48.612Z,100020.61
2018-09-23T07:22:52.263Z,100022.74
2018-09-23T07:27:55.731Z,99990.55
2018-09-23T07:32:59.183Z,99980.22
2018-09-23T07:38:02.600Z,99993.21
2018-09-23T07:43:06.079Z,99994.45
2018-09-23T07:48:09.583Z,100017.42
2018-09-23T07:53:13.015Z,100024.88
2018-09-23T07:58:16.612Z,99994.19
2018-09-23T08:03:20.341Z,99969.27
2018-09-23T08:08:23.831Z,99974.77
2018-09-23T08:13:27.355Z,99982.48
2018-09-23T08:18:30.796Z,99982.11
2018-09-23T08:23:34.262Z,99977.78
2018-09-23T08:28:38.214Z,99954.20
2018-09-23T08:33:41.712Z,99933.66
2018-09-23T08:38:45.196Z,99913.13
2018-09-23T08:43:48.616Z,99923.91
2018-09-23T08:48:52.183Z,99921.42
2018-09-23T08:53:55.640Z,99915.95
2018-09-23T08:58:59.093Z,99924.94
2018-09-23T09:04:02.577Z,99918.45
2018-09-23T09:09:07.218Z,99919.48
2018-09-23T09:14:10.659Z,99900.23
2018-09-23T09:19:14.119Z,99894.10
2018-09-23T09:24:17.596Z,99872.13
2018-09-23T09:29:21.026Z,99868.71
2018-09-23T09:34:24.499Z,99869.20
2018-09-23T09:39:27.948Z,99865.16
2018-09-23T09:44:31.415Z,99843.19
2018-09-23T09:49:34.906Z,99826.13
2018-09-23T09:54:38.356Z,99826.59
2018-09-23T09:59:41.931Z,99812.38
2018-09-23T10:04:45.379Z,99807.61
2018-09-23T10:09:48.827Z,99790.66
2018-09-23T10:14:52.273Z,99793.98
2018-09-23T10:19:55.697Z,99790.94
2018-09-23T10:24:59.120Z,99769.08
2018-09-23T10:30:02.888Z,99745.77
2018-09-23T10:35:07.755Z,99749.59
2018-09-23T10:40:11.345Z,99745.05
2018-09-23T10:45:14.784Z,99731.05
2018-09-23T10:50:18.208Z,99693.89
2018-09-23T10:55:21.664Z,99696.81
2018-09-23T11:00:25.096Z,99699.52
2018-09-23T11:05:28.516Z,99672.67
2018-09-23T11:10:31.964Z,99656.13
2018-09-23T11:15:35.441Z,99636.87
2018-09-23T11:20:38.872Z,99609.98
2018-09-23T11:25:42.321Z,99601.15
2018-09-23T11:30:45.932Z,99577.28
2018-09-23T11:35:50.653Z,99537.02
2018-09-23T11:40:54.514Z,99519.47
2018-09-23T11:45:57.972Z,99530.30
2018-09-23T11:51:01.422Z,99524.83
2018-09-23T11:56:04.944Z,99502.77
2018-09-23T12:01:08.573Z,99474.48
2018-09-23T12:06:12.045Z,99453.68
2018-09-23T12:11:16.353Z,99427.52
2018-09-23T12:16:19.807Z,99407.89
2018-09-23T12:21:23.240Z,99405.25
2018-09-23T12:26:26.694Z,99376.97
2018-09-23T12:31:30.171Z,99345.36
2018-09-23T12:36:33.616Z,99315.98
2018-09-23T12:41:37.084Z,99290.42
2018-09-23T12:46:40.538Z,99270.95
2018-09-23T12:51:44.181Z,99234.34
2018-09-23T12:56:47.753Z,99200.48
2018-09-23T13:01:51.194Z,99178.72
2018-09-23T13:06:54.617Z,99158.61
2018-09-23T13:11:58.218Z,99140.17
2018-09-23T13:17:01.680Z,99121.52
2018-09-23T13:22:06.644Z,99109.73
2018-09-23T13:27:10.090Z,99095.23
2018-09-23T13:32:13.520Z,99069.90
2018-09-23T13:37:16.939Z,99046.39
2018-09-23T13:42:20.408Z,99040.50
2018-09-23T13:47:23.862Z,99053.25
2018-09-23T13:52:27.306Z,99065.12
2018-09-23T13:57:30.757Z,99065.31
2018-09-23T14:02:34.272Z,99078.64
2018-09-23T14:07:37.821Z,99049.36
2018-09-23T14:12:41.290Z,98983.66
2018-09-23T14:17:44.727Z,98988.41
2018-09-23T14:22:48.206Z,98915.61
2018-09-23T14:27:51.733Z,98905.32
2018-09-23T14:32:55.251Z,98883.75
2018-09-23T14:37:58.728Z,98839.77
2018-09-23T14:43:02.389Z,98857.14
2018-09-23T14:48:05.878Z,98873.66
2018-09-23T14:53:09.332Z,98823.31
2018-09-23T14:58:12.782Z,98811.65
2018-09-23T15:03:16.240Z,98827.70
2018-09-23T15:08:19.847Z,98744.13
2018-09-23T15:13:23.341Z,98757.26
2018-09-23T15:18:26.796Z,98698.63
2018-09-23T15:23:30.261Z,98689.20
2018-09-23T15:28:33.739Z,98693.23
2018-09-23T15:33:37.180Z,98665.27
2018-09-23T15:38:40.673Z,98738.41
2018-09-23T15:43:44.119Z,98726.78
2018-09-23T15:48:47.875Z,98721.89
2018-09-23T15:53:51.317Z,98837.67
2018-09-23T15:58:54.753Z,98824.69
2018-09-23T16:03:58.232Z,98840.37
2018-09-23T16:09:01.688Z,98764.37
2018-09-23T16:14:05.231Z,98667.81
2018-09-23T16:19:08.767Z,98671.72
2018-09-23T16:24:12.311Z,98634.95
2018-09-23T16:29:15.798Z,98585.95
2018-09-23T16:34:19.254Z,98670.21
2018-09-23T16:39:22.725Z,98805.88
2018-09-23T16:44:26.361Z,98785.50
2018-09-23T16:49:29.833Z,98675.10
2018-09-23T16:54:33.585Z,98635.66
2018-09-23T16:59:37.023Z,98670.72
2018-09-23T17:04:40.495Z,98692.45
2018-09-23T17:09:44.035Z,98741.45
2018-09-23T17:14:48.367Z,98902.88
2018-09-23T17:19:52.100Z,98871.59
2018-09-23T17:24:56.197Z,98874.05
2018-09-23T17:35:15.304Z,98941.51
2018-09-23T17:40:19.229Z,98968.52
2018-09-23T17:45:23.556Z,99068.95
2018-09-23T17:50:27.804Z,99075.34
2018-09-23T17:55:31.828Z,99086.91
2018-09-23T18:00:35.516Z,99093.56
2018-09-23T18:05:39.263Z,99078.97
2018-09-23T18:10:42.772Z,99050.78
2018-09-23T18:15:52.740Z,99050.47
2018-09-23T18:20:56.439Z,99108.80
2018-09-23T18:26:00.103Z,99141.05
2018-09-23T18:31:03.891Z,99195.33
2018-09-23T18:36:08.962Z,99141.39
2018-09-23T18:41:12.521Z,99125.67
2018-09-23T18:46:16.092Z,99236.24
2018-09-23T18:51:19.553Z,99267.29
2018-09-23T18:56:23.087Z,99371.29
2018-09-23T19:01:26.595Z,99397.89
2018-09-23T19:06:30.107Z,99359.44
2018-09-23T19:11:33.588Z,99422.86
2018-09-23T19:16:37.081Z,99385.38
2018-09-23T19:21:40.734Z,99370.22
2018-09-23T19:26:44.366Z,99401.38
2018-09-23T19:31:48.024Z,99406.12
2018-09-23T19:36:51.455Z,99417.31
2018-09-23T19:41:54.904Z,99421.41
2018-09-23T19:46:58.339Z,99427.67
2018-09-23T19:52:01.799Z,99495.97
2018-09-23T19:57:05.296Z,99556.38
2018-09-23T20:02:08.751Z,99578.20
2018-09-23T20:07:12.285Z,99566.03
2018-09-23T20:12:15.874Z,99616.28
2018-09-23T20:17:19.319Z,99645.88
2018-09-23T20:22:22.771Z,99708.27
2018-09-23T20:27:26.220Z,99745.86
2018-09-23T20:32:29.677Z,99770.19
2018-09-23T20:37:33.106Z,99775.59
2018-09-23T20:42:36.538Z,99792.67
2018-09-23T20:47:39.989Z,99813.66
2018-09-23T20:52:43.484Z,99828.89
2018-09-23T20:57:46.951Z,99860.88
2018-09-23T21:02:50.472Z,99875.24
2018-09-23T21:07:53.918Z,99880.51
2018-09-23T21:12:57.385Z,99905.06
2018-09-23T21:18:00.854Z,99916.52
2018-09-23T21:23:04.311Z,99934.81
2018-09-23T21:28:07.756Z,99948.22
2018-09-23T21:33:11.187Z,99961.75
2018-09-23T21:38:14.628Z,99964.31
2018-09-23T21:43:18.071Z,99982.49
2018-09-23T21:48:21.522Z,99994.41
2018-09-23T21:53:24.968Z,100005.84
2018-09-23T21:58:28.404Z,100018.62
2018-09-23T22:03:31.943Z,100019.86
2018-09-23T22:08:35.488Z,100042.96
2018-09-23T22:13:38.942Z,100060.19
2018-09-23T22:18:42.577Z,100064.37
2018-09-23T22:23:46.056Z,100086.98
2018-09-23T22:28:49.567Z,100103.08
2018-09-23T22:33:53.084Z,100102.72
2018-09-23T22:38:56.688Z,100105.91
2018-09-23T22:44:00.179Z,100106.02
2018-09-23T22:49:03.646Z,100124.49
2018-09-23T22:54:07.276Z,100122.14
2018-09-23T22:59:10.760Z,100125.08
2018-09-23T23:04:14.191Z,100138.73
2018-09-23T23:09:17.628Z,100150.41
2018-09-23T23:14:21.083Z,100161.59
2018-09-23T23:19:24.556Z,100174.39
2018-09-23T23:29:37.586Z,100192.59
2018-09-23T23:34:41.031Z,100208.36
2018-09-23T23:39:44.499Z,100216.34
2018-09-23T23:44:47.942Z,100230.36
2018-09-23T23:49:51.374Z,100255.30
2018-09-23T23:54:54.833Z,100270.94
2018-09-23T23:59:58.363Z,100287.27
